Flight Track Log - Related Links

Times and Time Zones

All times are in EDT time to prevent confusion due to time zone crossing. See the AWE2310 flight status page for this flight to view local times or setup timezone preferences in your user account.

Time Position Orientation Groundspeed Altitude Reporting Facility
EDT Latitude Longitude Course Direction KTS MPH feet Rate Location/Type
Tue 09:44:24 PM 25.8014 -80.2675 322° Northwest 155 178 700  Level Miami Center
Tue 09:44:40 PM 25.8031 -80.2556 81° East 160 184 1,200 1,714 Climbing Miami Center
Tue 09:45:41 PM 25.8106 -80.1869 83° East 221 254 2,900 2,213 Climbing Miami Center
Tue 09:46:42 PM 25.8703 -80.1561 25° Northeast 277 319 5,700 2,164 Climbing Miami Center
Tue 09:47:43 PM 25.9214 -80.2289 308° West 303 349 7,300 2,527 Climbing Miami Center
Tue 09:49:00 PM 26.3384 -80.8996 322° Northwest  Level FlightAware Approximate
Tue 09:53:47 PM 26.3619 -80.7086 328° Northwest 421 484 23,600  Level FlightAware ADS-B (RJTF)
Tue 09:54:18 PM 26.4133 -80.7447 328° Northwest 415 478 25,300 2,684 Climbing FlightAware ADS-B (RJTF)
Tue 09:55:03 PM 26.4775 -80.7898 328° Northwest 420 483 27,000 1,920 Climbing FlightAware ADS-B (RJTF)
Tue 09:55:33 PM 26.5300 -80.8266 328° Northwest 433 498 27,700 1,760 Climbing FlightAware ADS-B (RJTF)
Tue 09:56:18 PM 26.6116 -80.8834 328° Northwest 434 499 29,200 2,192 Climbing FlightAware ADS-B (RJTF)
Tue 09:57:17 PM 26.7128 -80.9540 327° Northwest 425 489 31,500 1,867 Climbing FlightAware ADS-B (RJTF)
Tue 09:57:48 PM 26.7647 -80.9913 327° Northwest 415 478 32,000 400 Climbing FlightAware ADS-B (RJTF)
Tue 09:58:32 PM 26.8281 -81.0364 328° Northwest 415 478 32,000  Level FlightAware ADS-B (RJTF)
Tue 09:59:33 PM 26.9337 -81.1110 328° Northwest 414 476 32,000  Level FlightAware ADS-B (RJTF)
Tue 10:00:56 PM 27.0494 -81.1942 328° Northwest 414 476 32,000  Level Miami Center
Tue 10:01:57 PM 27.1472 -81.2622 328° Northwest 414 476 32,000  Level Miami Center
Tue 10:03:01 PM 27.2631 -81.3450 328° Northwest 411 473 32,000  Level Miami Center
Tue 10:04:01 PM 27.3600 -81.4131 328° Northwest 415 478 32,000  Level Miami Center
Tue 10:05:02 PM 27.4619 -81.4869 327° Northwest 415 478 32,000  Level Miami Center
Tue 10:06:01 PM 27.5575 -81.5547 328° Northwest 418 481 32,000  Level Miami Center
Tue 10:07:02 PM 27.6600 -81.6281 328° Northwest 418 481 32,000  Level Miami Center
Tue 10:08:03 PM 27.7633 -81.7014 328° Northwest 418 481 32,000  Level Miami Center
Tue 10:09:06 PM 27.8472 -81.7622 327° Northwest 418 481 32,000  Level Miami Center
Tue 10:10:06 PM 27.9447 -81.8333 327° Northwest 419 482 32,000  Level Miami Center
Tue 10:11:07 PM 28.0444 -81.9036 328° Northwest 419 482 32,000  Level Miami Center
Tue 10:11:42 PM 28.1278 -81.9489 334° Northwest 419 482 32,000  Level Jacksonville Center
Tue 10:12:42 PM 28.2325 -82.0092 333° Northwest 419 482 32,000  Level Jacksonville Center
Tue 10:13:42 PM 28.3372 -82.0694 333° Northwest 419 482 32,000  Level Jacksonville Center
Tue 10:14:42 PM 28.4419 -82.1300 333° Northwest 419 482 32,000  Level Jacksonville Center
Tue 10:15:42 PM 28.5486 -82.1883 334° Northwest 419 482 32,000 -50 Level Jacksonville Center
Tue 10:16:42 PM 28.6514 -82.2514 332° Northwest 419 482 31,900  Descending Jacksonville Center
Tue 10:17:42 PM 28.7558 -82.3122 333° Northwest 414 476 32,000 50 Climbing Jacksonville Center
Tue 10:18:42 PM 28.8606 -82.3733 333° Northwest 414 476 32,000  Level Jacksonville Center
Tue 10:19:42 PM 28.9650 -82.4322 334° Northwest 414 476 32,000  Level Jacksonville Center
Tue 10:20:42 PM 29.0739 -82.4933 334° Northwest 414 476 32,000  Level Jacksonville Center
Tue 10:21:42 PM 29.1783 -82.5572 332° Northwest 414 476 32,000  Level Jacksonville Center
Tue 10:22:42 PM 29.2850 -82.6164 334° Northwest 414 476 32,000 -50 Level Jacksonville Center
Tue 10:23:42 PM 29.3917 -82.6806 332° Northwest 419 482 31,900 -50 Descending Jacksonville Center
Tue 10:24:42 PM 29.4981 -82.7422 333° Northwest 419 482 31,900 50 Level Jacksonville Center
Tue 10:25:42 PM 29.5942 -82.8019 332° Northwest 430 495 32,000 50 Climbing Jacksonville Center
Tue 10:26:42 PM 29.7028 -82.8664 333° Northwest 430 495 32,000  Level Jacksonville Center
Tue 10:27:42 PM 29.8092 -82.9286 333° Northwest 430 495 32,000  Level Jacksonville Center
Tue 10:28:42 PM 29.9158 -82.9908 333° Northwest 430 495 32,000 -50 Level Jacksonville Center
Tue 10:29:42 PM 30.0367 -83.0581 334° Northwest 430 495 31,900  Descending Jacksonville Center
Tue 10:30:42 PM 30.1411 -83.1208 333° Northwest 430 495 32,000 50 Climbing Jacksonville Center
Tue 10:31:42 PM 30.2475 -83.1858 332° Northwest 430 495 32,000  Level Jacksonville Center
Tue 10:32:42 PM 30.3536 -83.2489 333° Northwest 430 495 32,000  Level Jacksonville Center
Tue 10:33:42 PM 30.4619 -83.3119 333° Northwest 430 495 32,000  Level Jacksonville Center
Tue 10:34:42 PM 30.5683 -83.3775 332° Northwest 430 495 32,000  Level Jacksonville Center
Tue 10:35:42 PM 30.6744 -83.4408 333° Northwest 430 495 32,000  Level Jacksonville Center
Tue 10:36:42 PM 30.7850 -83.5044 334° Northwest 430 495 32,000  Level Jacksonville Center
Tue 10:37:42 PM 30.8889 -83.5728 331° Northwest 430 495 32,000  Level Jacksonville Center
Tue 10:38:42 PM 30.9972 -83.6367 333° Northwest 430 495 32,000  Level Jacksonville Center
Tue 10:39:42 PM 31.1033 -83.7031 332° Northwest 425 489 32,000  Level Jacksonville Center
Tue 10:41:52 PM 31.3250 -83.8394 332° Northwest 437 503 32,000  Level Atlanta Center
Tue 10:42:52 PM 31.4292 -83.9050 332° Northwest 437 503 32,000  Level Atlanta Center
Tue 10:43:52 PM 31.5419 -83.9633 336° Northwest 437 503 32,000  Level Atlanta Center
Tue 10:44:52 PM 31.6611 -83.9925 348° North 437 503 32,000  Level Atlanta Center
Tue 10:45:52 PM 31.7925 -84.0217 349° North 437 503 32,000  Level Atlanta Center
Tue 10:46:52 PM 31.9136 -84.0461 350° North 437 503 32,000  Level Atlanta Center
Tue 10:47:52 PM 32.0325 -84.0756 348° North 432 497 32,000  Level Atlanta Center
Tue 10:48:52 PM 32.1558 -84.1025 350° North 432 497 32,000  Level Atlanta Center
Tue 10:49:52 PM 32.2767 -84.1297 349° North 437 503 32,000  Level Atlanta Center
Tue 10:50:52 PM 32.3956 -84.1544 350° North 437 503 32,000  Level Atlanta Center
Tue 10:51:52 PM 32.5167 -84.1842 348° North 437 503 32,000  Level Atlanta Center
Tue 10:52:52 PM 32.6356 -84.2114 349° North 432 497 32,000  Level Atlanta Center
Tue 10:53:52 PM 32.7589 -84.2364 350° North 432 497 32,000  Level Atlanta Center
Tue 10:54:52 PM 32.8797 -84.2639 349° North 432 497 32,000  Level Atlanta Center
Tue 10:55:52 PM 32.9986 -84.2964 347° North 432 497 32,000  Level Atlanta Center
Tue 10:56:52 PM 33.1239 -84.3192 351° North 432 497 32,000  Level Atlanta Center
Tue 10:57:52 PM 33.2428 -84.3517 347° North 437 503 32,000  Level Atlanta Center
Tue 10:58:52 PM 33.3514 -84.3744 350° North 437 503 32,000  Level Atlanta Center
Tue 11:02:17 PM 34.0741 -84.6109 333° Northwest 433 498 32,000  Level FlightAware ADS-B (KDZJ)
Tue 11:02:56 PM 34.1448 -84.6537 333° Northwest 432 497 32,000  Level FlightAware ADS-B (KDZJ)
Tue 11:03:37 PM 34.2173 -84.6975 333° Northwest 431 496 32,000  Level FlightAware ADS-B (KDZJ)
Tue 11:04:17 PM 34.2876 -84.7403 333° Northwest 432 497 32,000  Level FlightAware ADS-B (KDZJ)
Tue 11:04:57 PM 34.3603 -84.7846 333° Northwest 432 497 32,000  Level FlightAware ADS-B (KDZJ)
Tue 11:05:36 PM 34.4301 -84.8272 333° Northwest 433 498 32,000  Level FlightAware ADS-B (KDZJ)
Tue 11:06:10 PM 34.4904 -84.8639 333° Northwest 433 498 32,000  Level FlightAware ADS-B (KDZJ)
Tue 11:06:57 PM 34.5742 -84.9151 333° Northwest 434 499 32,000  Level FlightAware ADS-B (KDZJ)
Tue 11:07:37 PM 34.6464 -84.9593 333° Northwest 435 501 32,000  Level FlightAware ADS-B (KDZJ)
Tue 11:08:13 PM 34.7115 -84.9994 333° Northwest 435 501 32,000  Level FlightAware ADS-B (KDZJ)
Tue 11:08:50 PM 34.7777 -85.0401 333° Northwest 435 501 32,000  Level FlightAware ADS-B (KDZJ)
Tue 11:12:03 PM 34.8474 -85.0831 333° Northwest 434 499 32,000 -62 Level FlightAware ADS-B (KMDQ)
Tue 11:13:41 PM 35.0025 -85.2060 314° West 426 490 31,700 -397 Descending FlightAware ADS-B (KMDQ)
Tue 11:14:19 PM 35.0610 -85.2806 314° West 429 494 31,100 -2,025 Descending FlightAware ADS-B (KMDQ)
Tue 11:15:01 PM 35.1183 -85.3536 314° West 431 496 29,000 -3,220 Descending FlightAware ADS-B (KMDQ)
Tue 11:15:41 PM 35.1708 -85.4209 314° West 432 497 26,700 -3,225 Descending FlightAware ADS-B (KMDQ)
Tue 11:16:21 PM 35.2259 -85.4917 313° West 425 489 24,700 -2,810 Descending FlightAware ADS-B (KMDQ)
Tue 11:17:00 PM 35.2798 -85.5610 313° West 420 483 23,000 -2,475 Descending FlightAware ADS-B (KMDQ)
Tue 11:17:41 PM 35.3348 -85.6321 313° West 416 479 21,400 -2,325 Descending FlightAware ADS-B (KMDQ)
Tue 11:18:20 PM 35.3848 -85.6967 313° West 412 474 19,900 -2,354 Descending FlightAware ADS-B (KMDQ)
Tue 11:19:00 PM 35.4308 -85.7566 313° West 404 465 18,300 -2,296 Descending FlightAware ADS-B (KMDQ)
Tue 11:19:41 PM 35.4899 -85.8334 313° West 403 464 16,800 -2,296 Descending FlightAware ADS-B (KMDQ)
Tue 11:20:21 PM 35.5411 -85.8997 314° West 398 458 15,200 -2,325 Descending FlightAware ADS-B (KMDQ)
Tue 11:21:01 PM 35.5912 -85.9648 313° West 391 450 13,700 -2,260 Descending FlightAware ADS-B (KMDQ)
Tue 11:21:38 PM 35.6373 -86.0251 313° West 382 440 12,300 -2,100 Descending FlightAware ADS-B (KMDQ)
Tue 11:22:21 PM 35.6876 -86.0910 313° West 364 419 10,900 -1,301 Descending FlightAware ADS-B (KMDQ)
Tue 11:23:01 PM 35.7302 -86.1472 313° West 323 372 10,500 -623 Descending FlightAware ADS-B (KMDQ)
Tue 11:23:38 PM 35.7659 -86.1940 313° West 292 336 10,100 -857 Descending FlightAware ADS-B (KMDQ)
Tue 11:24:11 PM 35.7955 -86.2328 313° West 280 322 9,500 -1,241 Descending FlightAware ADS-B (KMDQ)
Tue 11:25:34 PM 35.8667 -86.3167 313° West 266 306 7,700 -1,385 Descending Nashville TRACON
Tue 11:26:34 PM 35.9167 -86.3833 313° West 268 308 6,200 -1,286 Descending Nashville TRACON
Tue 11:27:40 PM 35.9656 -86.4589 309° West 270 311 5,000 -563 Descending Memphis Center
Tue 11:28:42 PM 36.0136 -86.5214 314° West 255 293 5,000  Level Memphis Center
Tue 11:29:43 PM 36.0581 -86.5778 314° West 233 268 5,000 -344 Level Memphis Center
Tue 11:30:44 PM 36.1258 -86.5586 13° North 248 285 4,300 -1,033 Descending Memphis Center
Tue 11:31:45 PM 36.1897 -86.5533 North 243 280 2,900 -1,033 Descending Memphis Center
Tue 11:32:46 PM 36.1986 -86.6167 280° West 198 228 2,200 -787 Descending Memphis Center
Tue 11:33:47 PM 36.1672 -86.6453 216° Southwest 154 177 1,300 -738 Descending Memphis Center
Tue 11:34:48 PM 36.1294 -86.6606 198° South 137 158 700 -590 Descending Memphis Center

Login

Don't have an account? Register now (free) for customized features, flight alerts, and more!